Time;durP1;ratioP1;P1;durP2;ratioP2;P2;SDS_P1;SDS_P2;PMS_P1;PMS_P2;Temp;Humidity;BMP_temperature;BMP_pressure;BME280_temperature;BME280_humidity;BME280_pressure;Samples;Min_cycle;Max_cycle;Signal;HPM_P1;HPM_P2
2021/07/19 00:01:34;;;;;;;0.20;0.20;;;;;;;20.99;38.33;92439.84;6187111;23;20043;-93
2021/07/19 00:04:10;;;;;;;0.20;0.20;;;;;;;21.21;37.86;92469.53;6193857;23;20425;-93
2021/07/19 00:06:42;;;;;;;0.95;0.68;;;;;;;21.06;37.51;92447.19;6146484;23;20038;-94
2021/07/19 00:09:20;;;;;;;1.23;0.50;;;;;;;21.04;37.62;92452.09;6193441;23;20016;-92
2021/07/19 00:12:07;;;;;;;0.30;0.30;;;;;;;21.13;37.65;92468.59;6220906;23;20111;-92
2021/07/19 00:15:05;;;;;;;0.40;0.40;;;;;;;21.06;37.58;92467.72;6216322;23;20114;-92
2021/07/19 00:18:03;;;;;;;0.82;0.50;;;;;;;21.16;37.66;92497.16;6220673;23;20549;-93
2021/07/19 00:20:58;;;;;;;0.10;0.10;;;;;;;20.89;37.90;92451.03;6196903;23;20077;-93
2021/07/19 00:24:18;;;;;;;0.25;0.25;;;;;;;20.89;37.77;92463.56;6218399;23;20020;-94
2021/07/19 00:26:54;;;;;;;0.73;0.20;;;;;;;21.17;37.73;92504.03;6215358;23;20075;-92
2021/07/19 00:30:13;;;;;;;;;;;;;;;;;;;;;
2021/07/19 00:33:15;;;;;;;0.38;0.38;;;;;;;20.83;37.58;92471.09;6242526;23;20070;-92
2021/07/19 00:36:18;;;;;;;0.55;0.43;;;;;;;20.84;37.23;92467.28;6204238;23;20447;-92
2021/07/19 00:39:28;;;;;;;;;;;;;;;;;;;;;
2021/07/19 00:42:17;;;;;;;0.50;0.35;;;;;;;20.93;36.55;92464.41;6217297;23;20020;-94
2021/07/19 00:44:48;;;;;;;0.75;0.73;;;;;;;21.13;36.81;92497.13;6242604;23;20019;-92
2021/07/19 00:47:15;;;;;;;0.75;0.73;;;;;;;20.96;36.72;92496.44;6217689;23;20023;-93
2021/07/19 00:50:13;;;;;;;0.47;0.47;;;;;;;20.86;37.12;92474.94;6242479;23;20016;-93
2021/07/19 00:53:26;;;;;;;0.10;0.10;;;;;;;21.21;36.15;92498.81;6220044;23;20091;-94
2021/07/19 00:56:01;;;;;;;0.47;0.28;;;;;;;21.04;36.49;92480.59;6192618;23;20012;-93
2021/07/19 00:58:53;;;;;;;0.20;0.20;;;;;;;21.02;35.86;92474.84;6219747;23;20091;-93
2021/07/19 01:01:44;;;;;;;0.25;0.25;;;;;;;20.98;36.29;92461.47;6204579;23;20017;-93
2021/07/19 01:04:30;;;;;;;0.10;0.10;;;;;;;20.97;36.17;92466.03;6186242;23;20413;-93
2021/07/19 01:07:50;;;;;;;1.30;0.73;;;;;;;20.81;37.20;92472.56;6211790;23;20097;-93
2021/07/19 01:11:10;;;;;;;;;;;;;;;;;;;;;
2021/07/19 01:14:08;;;;;;;0.73;0.68;;;;;;;20.71;37.47;92479.19;6213553;23;20101;-94
2021/07/19 01:17:08;;;;;;;;;;;;;;;;;;;;;
2021/07/19 01:19:57;;;;;;;0.50;0.50;;;;;;;20.71;37.38;92505.78;6168729;23;20055;-93
2021/07/19 01:23:25;;;;;;;0.20;0.20;;;;;;;20.93;37.08;92525.63;6187056;23;20352;-92
2021/07/19 01:26:28;;;;;;;0.50;0.50;;;;;;;20.78;37.61;92517.34;6187013;23;20009;-93
2021/07/19 01:29:22;;;;;;;0.30;0.30;;;;;;;20.42;37.45;92469.81;6188004;23;20016;-92
2021/07/19 01:31:56;;;;;;;0.20;0.20;;;;;;;20.45;37.92;92483.19;6187489;23;20017;-93
2021/07/19 01:34:33;;;;;;;0.25;0.25;;;;;;;20.50;37.86;92500.75;6212294;23;20015;-92
2021/07/19 01:37:07;;;;;;;0.20;0.20;;;;;;;20.67;37.42;92524.34;6162391;23;20009;-93
2021/07/19 01:40:27;;;;;;;0.40;0.40;;;;;;;20.61;38.54;92531.03;6211490;23;20028;-93
2021/07/19 01:46:07;;;;;;;1.13;0.85;;;;;;;20.37;38.70;92506.16;6182982;23;20020;-92
2021/07/19 01:48:57;;;;;;;0.70;0.68;;;;;;;20.08;38.91;92472.88;6189686;23;20528;-92
2021/07/19 01:51:40;;;;;;;0.20;0.20;;;;;;;20.21;38.79;92499.34;6162928;23;20020;-92
2021/07/19 01:54:24;;;;;;;0.60;0.60;;;;;;;20.18;38.69;92490.97;6186840;23;20016;-93
2021/07/19 01:57:13;;;;;;;3.03;0.95;;;;;;;20.09;38.39;92471.00;6187900;23;20100;-92
2021/07/19 02:00:01;;;;;;;0.45;0.43;;;;;;;19.99;39.56;92472.28;6188717;23;20044;-94
2021/07/19 02:03:05;;;;;;;0.47;0.47;;;;;;;19.90;39.63;92477.78;6207343;23;20375;-92
2021/07/19 02:06:02;;;;;;;0.73;0.40;;;;;;;19.86;39.05;92474.28;6220322;23;20095;-92
2021/07/19 02:09:07;;;;;;;;;;;;;;;;;;;;;
2021/07/19 02:12:30;;;;;;;;;;;;;;;;;;;;;
2021/07/19 02:15:10;;;;;;;0.20;0.20;;;;;;;19.92;38.92;92480.09;6216691;23;20031;-94
2021/07/19 02:17:51;;;;;;;0.75;0.75;;;;;;;19.81;39.07;92471.09;6192216;23;20015;-91
2021/07/19 02:20:31;;;;;;;1.35;0.90;;;;;;;19.75;39.26;92483.88;6194948;23;20296;-93
2021/07/19 02:23:19;;;;;;;0.40;0.38;;;;;;;19.82;39.39;92493.91;6239561;23;20498;-91
2021/07/19 02:26:34;;;;;;;0.63;0.55;;;;;;;19.68;39.80;92484.44;6234258;23;20095;-93
2021/07/19 02:29:34;;;;;;;0.82;0.50;;;;;;;19.66;39.64;92484.03;6241401;23;20020;-93
2021/07/19 02:32:34;;;;;;;0.52;0.40;;;;;;;19.57;39.58;92488.72;6215505;23;20086;-92
2021/07/19 02:35:26;;;;;;;0.43;0.43;;;;;;;19.63;40.17;92497.19;6220073;23;20107;-92
2021/07/19 02:38:29;;;;;;;0.20;0.20;;;;;;;19.55;39.96;92486.41;6218951;23;20097;-92
2021/07/19 02:41:27;;;;;;;1.10;0.70;;;;;;;19.75;40.00;92521.06;6242476;23;20087;-93
2021/07/19 02:44:06;;;;;;;0.40;0.40;;;;;;;19.52;39.83;92487.09;6197206;23;20062;-92
2021/07/19 02:47:18;;;;;;;0.55;0.43;;;;;;;19.40;39.81;92465.16;6215341;23;20028;-92
2021/07/19 02:49:54;;;;;;;0.30;0.30;;;;;;;19.57;39.94;92499.34;6221110;23;20527;-93
2021/07/19 02:52:58;;;;;;;0.93;0.50;;;;;;;19.35;40.34;92474.91;6217938;23;20062;-92
2021/07/19 02:55:49;;;;;;;2.10;0.95;;;;;;;19.26;40.52;92469.00;6183217;23;20042;-94
2021/07/19 02:58:29;;;;;;;0.47;0.47;;;;;;;19.30;39.84;92477.06;6217261;23;20020;-92
2021/07/19 03:01:39;;;;;;;1.73;0.70;;;;;;;19.22;40.30;92465.47;6235672;23;20039;-92
2021/07/19 03:04:27;;;;;;;0.20;0.20;;;;;;;19.38;40.84;92497.34;6223643;23;20091;-93
2021/07/19 03:07:33;;;;;;;0.38;0.38;;;;;;;19.47;40.96;92523.72;6220227;23;20092;-92
2021/07/19 03:10:11;;;;;;;0.38;0.38;;;;;;;19.04;41.10;92466.88;6193175;23;20078;-93
2021/07/19 03:13:04;;;;;;;0.32;0.32;;;;;;;18.96;41.46;92462.50;6220465;23;20137;-94
2021/07/19 03:16:19;;;;;;;0.28;0.28;;;;;;;18.86;41.46;92455.81;6244243;23;20047;-94
2021/07/19 03:19:26;;;;;;;0.25;0.25;;;;;;;18.85;41.87;92467.53;6243196;23;20027;-92
2021/07/19 03:22:33;;;;;;;0.40;0.40;;;;;;;19.08;42.30;92513.63;6220501;23;20095;-91
2021/07/19 03:25:24;;;;;;;2.08;0.85;;;;;;;19.02;42.17;92508.91;6199354;23;20104;-93
2021/07/19 03:28:07;;;;;;;0.20;0.20;;;;;;;18.55;42.88;92456.44;6220465;23;20012;-93
2021/07/19 03:31:02;;;;;;;0.32;0.32;;;;;;;18.46;43.96;92453.91;6194937;23;20042;-93
2021/07/19 03:34:19;;;;;;;0.80;0.65;;;;;;;18.38;43.65;92465.44;6239553;23;20402;-93
2021/07/19 03:36:53;;;;;;;1.08;0.90;;;;;;;18.22;44.03;92449.44;6241935;23;20028;-93
2021/07/19 03:39:46;;;;;;;0.40;0.40;;;;;;;18.17;45.28;92457.59;6217705;23;20016;-92
2021/07/19 03:42:59;;;;;;;0.38;0.38;;;;;;;18.08;45.15;92461.16;6218697;23;20112;-92
2021/07/19 03:48:46;;;;;;;1.63;1.08;;;;;;;18.10;44.72;92474.84;6243498;23;20099;-93
2021/07/19 03:51:28;;;;;;;;;;;;;;;;;;;;;
2021/07/19 03:54:05;;;;;;;1.05;0.55;;;;;;;18.05;43.30;92461.06;6216934;23;20024;-93
2021/07/19 03:57:17;;;;;;;1.13;0.55;;;;;;;18.08;42.49;92460.38;6221159;23;20024;-93
2021/07/19 04:00:23;;;;;;;;;;;;;;;;;;;;;
2021/07/19 04:06:39;;;;;;;0.65;0.40;;;;;;;18.48;42.00;92478.97;6204381;23;20020;-92
2021/07/19 04:12:08;;;;;;;0.65;0.43;;;;;;;18.35;42.31;92453.63;6196442;23;20016;-93
2021/07/19 04:14:42;;;;;;;0.73;0.50;;;;;;;18.40;42.44;92452.63;6217714;23;20016;-92
2021/07/19 04:17:39;;;;;;;;;;;;;;;;;;;;;
2021/07/19 04:20:17;;;;;;;0.10;0.10;;;;;;;18.42;41.74;92453.81;6216271;23;20074;-91
2021/07/19 04:23:15;;;;;;;0.22;0.22;;;;;;;18.50;41.67;92463.50;6199802;23;20386;-93
2021/07/19 04:29:02;;;;;;;0.20;0.15;;;;;;;18.76;41.74;92501.34;6234204;23;20023;-92
2021/07/19 04:42:11;;;;;;;0.10;0.10;;;;;;;18.87;39.50;92449.41;6210716;23;20081;-92
2021/07/19 04:44:57;;;;;;;;;;;;;;;;;;;;;
2021/07/19 04:48:03;;;;;;;0.20;0.20;;;;;;;19.10;40.38;92478.81;6242109;23;20505;-92
2021/07/19 04:51:03;;;;;;;0.57;0.57;;;;;;;19.08;40.56;92468.53;6219719;23;20083;-92
2021/07/19 04:54:32;;;;;;;0.75;0.60;;;;;;;19.30;40.53;92504.34;6199022;23;20016;-93
2021/07/19 04:57:32;;;;;;;;;;;;;;;;;;;;;
2021/07/19 05:03:41;;;;;;;0.70;0.30;;;;;;;19.26;41.07;92489.47;6198012;23;20030;-93
2021/07/19 05:06:41;;;;;;;1.30;1.20;;;;;;;19.28;41.15;92484.59;6224549;23;20098;-93
2021/07/19 05:10:14;;;;;;;0.35;0.35;;;;;;;19.28;40.28;92472.06;6243364;23;20099;-92
2021/07/19 05:13:27;;;;;;;;;;;;;;;;;;;;;
2021/07/19 05:16:32;;;;;;;0.43;0.38;;;;;;;19.57;39.69;92488.72;6244692;23;20498;-92
2021/07/19 05:19:33;;;;;;;0.45;0.45;;;;;;;19.72;39.40;92503.13;6209684;23;20038;-95
2021/07/19 05:22:37;;;;;;;1.95;1.38;;;;;;;19.79;39.13;92494.56;6220842;23;20024;-92
2021/07/19 05:25:50;;;;;;;0.20;0.20;;;;;;;19.81;39.47;92482.50;6217177;23;20043;-92
2021/07/19 05:29:02;;;;;;;;;;;;;;;;;;;;;
2021/07/19 05:38:24;;;;;;;;;;;;;;;;;;;;;
2021/07/19 05:41:41;;;;;;;1.20;1.10;;;;;;;20.25;39.12;92490.34;6244531;23;20016;-93
2021/07/19 05:44:30;;;;;;;0.82;0.50;;;;;;;20.35;38.64;92483.72;6199324;23;20728;-92
2021/07/19 05:47:16;;;;;;;0.70;0.60;;;;;;;20.80;38.38;92532.94;6193671;23;20023;-94
2021/07/19 05:50:07;;;;;;;5.43;0.68;;;;;;;20.67;38.44;92499.59;6168704;23;20070;-93
2021/07/19 05:52:57;;;;;;;0.30;0.30;;;;;;;20.82;38.21;92498.78;6213437;23;20099;-92
2021/07/19 06:04:20;;;;;;;1.40;0.80;;;;;;;27.43;27.65;92492.28;6257645;22;20452;-92
2021/07/19 06:07:14;;;;;;;;;;;;;;;;;;;;;
2021/07/19 06:10:21;;;;;;;;;;;;;;;;;;;;;
2021/07/19 06:13:19;;;;;;;1.00;0.90;;;;;;;32.19;21.88;92532.19;6242227;23;20023;-93
2021/07/19 06:16:25;;;;;;;1.08;1.00;;;;;;;32.72;19.56;92508.50;6196019;23;20028;-93
2021/07/19 06:19:59;;;;;;;1.25;1.15;;;;;;;33.17;18.96;92481.38;6196280;23;20024;-94
2021/07/19 06:26:46;;;;;;;1.27;1.17;;;;;;;34.87;17.51;92491.41;6229142;23;20448;-93
2021/07/19 06:29:25;;;;;;;1.52;1.42;;;;;;;35.74;17.51;92483.75;6209788;23;20027;-94
2021/07/19 06:32:27;;;;;;;1.75;1.45;;;;;;;36.68;17.42;92545.13;6222185;23;20518;-95
2021/07/19 06:35:40;;;;;;;1.58;1.48;;;;;;;36.43;19.31;92520.78;6193875;23;20085;-93
2021/07/19 06:38:36;;;;;;;1.05;1.00;;;;;;;34.64;24.66;92506.16;6198680;23;20091;-94
2021/07/19 06:45:30;;;;;;;2.05;1.23;;;;;;;34.01;24.27;92515.84;6244761;23;20016;-94
2021/07/19 06:48:19;;;;;;;3.92;0.95;;;;;;;33.57;24.85;92510.13;6219208;23;20091;-94
2021/07/19 06:51:23;;;;;;;0.95;0.75;;;;;;;32.50;26.85;92541.50;6220827;23;20008;-93
2021/07/19 06:54:25;;;;;;;;;;;;;;;;;;;;;
2021/07/19 06:57:21;;;;;;;;;;;;;;;;;;;;;
2021/07/19 07:00:18;;;;;;;0.63;0.63;;;;;;;26.85;37.12;92497.06;6219686;23;20020;-94
2021/07/19 07:02:54;;;;;;;0.50;0.50;;;;;;;25.59;40.06;92541.84;6205215;23;20086;-94
2021/07/19 07:06:10;;;;;;;2.80;0.90;;;;;;;24.03;44.34;92503.84;6198042;23;20020;-95
2021/07/19 07:09:37;;;;;;;;;;;;;;;;;;;;;
2021/07/19 07:12:44;;;;;;;;;;;;;;;;;;;;;
2021/07/19 07:15:54;;;;;;;0.25;0.25;;;;;;;24.27;42.33;92486.47;6221077;23;20039;-95
2021/07/19 07:19:07;;;;;;;0.90;0.70;;;;;;;23.82;43.31;92498.31;6210639;23;20095;-94
2021/07/19 07:22:31;;;;;;;0.30;0.30;;;;;;;23.70;44.14;92502.00;6202727;23;20095;-95
2021/07/19 07:30:22;;;;;;;;;;;;;;;;;;;;;
2021/07/19 07:33:17;;;;;;;;;;;;;;;23.88;43.83;92564.41;6245333;23;20078;-95
2021/07/19 07:36:24;;;;;;;;;;;;;;;;;;;;;
2021/07/19 07:39:46;;;;;;;;;;;;;;;;;;;;;
2021/07/19 07:47:22;;;;;;;0.30;0.30;;;;;;;22.96;45.60;92530.13;6209536;23;20083;-93
2021/07/19 07:50:43;;;;;;;;;;;;;;;;;;;;;
2021/07/19 08:01:55;;;;;;;0.88;0.73;;;;;;;22.69;47.58;92504.63;6199648;23;20028;-94
2021/07/19 08:20:58;;;;;;;;;;;;;;;;;;;;;
2021/07/19 08:36:12;;;;;;;;;;;;;;;;;;;;;
2021/07/19 08:39:28;;;;;;;;;;;;;;;;;;;;;
2021/07/19 08:47:19;;;;;;;0.43;0.43;;;;;;;24.13;43.28;92571.91;6016634;23;20093;-93
2021/07/19 09:02:14;;;;;;;;;;;;;;;;;;;;;
2021/07/19 09:05:52;;;;;;;;;;;;;;;;;;;;;
2021/07/19 09:12:48;;;;;;;0.65;0.55;;;;;;;24.26;42.10;92518.91;6057639;23;20024;-93
2021/07/19 09:15:34;;;;;;;0.90;0.73;;;;;;;24.32;41.82;92520.13;6067526;23;20026;-91
2021/07/19 09:18:18;;;;;;;0.75;0.57;;;;;;;24.10;41.67;92501.22;6121214;23;20048;-93
2021/07/19 09:21:04;;;;;;;0.40;0.40;;;;;;;24.26;41.66;92511.66;6076167;23;20025;-93
2021/07/19 09:23:32;;;;;;;1.35;0.90;;;;;;;24.50;42.39;92526.38;6123092;23;20014;-93
2021/07/19 09:26:09;;;;;;;2.92;0.60;;;;;;;24.97;41.56;92542.72;6121493;23;20021;-92
2021/07/19 09:28:55;;;;;;;;;;;;;;;25.01;41.75;92548.84;6152031;23;20043;-94
2021/07/19 09:31:37;;;;;;;1.17;0.88;;;;;;;24.64;41.64;92498.19;6189551;23;19990;-93
2021/07/19 09:34:28;;;;;;;0.50;0.50;;;;;;;24.85;41.16;92508.22;6213723;23;20512;-92
2021/07/19 09:37:01;;;;;;;0.85;0.77;;;;;;;24.93;42.67;92513.25;6162214;23;20092;-94
2021/07/19 09:40:09;;;;;;;0.30;0.30;;;;;;;24.61;42.18;92526.47;6188124;23;20082;-93
2021/07/19 09:42:45;;;;;;;1.33;0.95;;;;;;;24.99;41.02;92526.25;6186862;23;20036;-93
2021/07/19 09:45:27;;;;;;;0.22;0.22;;;;;;;24.62;41.15;92485.16;6211726;23;20036;-93
2021/07/19 09:48:04;;;;;;;0.43;0.43;;;;;;;25.02;41.77;92517.50;6186769;23;20482;-93
2021/07/19 09:51:13;;;;;;;0.57;0.57;;;;;;;25.04;40.47;92489.19;6186877;23;20508;-94
2021/07/19 09:53:50;;;;;;;1.60;0.93;;;;;;;25.63;40.19;92507.03;6164093;23;20009;-93
2021/07/19 09:56:34;;;;;;;0.40;0.40;;;;;;;25.66;40.40;92477.53;6213162;23;20016;-94
2021/07/19 09:59:11;;;;;;;0.30;0.30;;;;;;;25.94;39.23;92521.66;6186799;23;20321;-95
2021/07/19 10:01:42;;;;;;;1.33;0.77;;;;;;;25.72;38.82;92478.69;6211766;23;20507;-92
2021/07/19 10:04:28;;;;;;;;;;;;;;;;;;;;;
2021/07/19 10:07:17;;;;;;;0.63;0.63;;;;;;;25.95;37.87;92474.91;6193717;23;20028;-93
2021/07/19 10:10:15;;;;;;;0.88;0.65;;;;;;;25.53;37.46;92490.53;6229092;23;20439;-94
2021/07/19 10:12:57;;;;;;;0.45;0.40;;;;;;;26.11;37.32;92482.56;6216926;23;20390;-94
2021/07/19 10:15:32;;;;;;;0.63;0.63;;;;;;;26.11;38.35;92471.84;6216804;23;20039;-93
2021/07/19 10:25:50;;;;;;;0.63;0.38;;;;;;;26.33;34.76;92494.81;6206772;23;20020;-95
2021/07/19 10:32:06;;;;;;;1.15;0.57;;;;;;;26.50;36.56;92495.97;6221742;22;20339;-78
2021/07/19 10:34:32;;;;;;;2.83;0.63;;;;;;;26.53;37.52;92502.47;6195401;23;20012;-78
2021/07/19 10:37:03;;;;;;;1.17;0.95;;;;;;;26.43;37.51;92506.69;6219003;23;20107;-79
2021/07/19 10:39:37;;;;;;;0.50;0.50;;;;;;;26.63;36.11;92507.09;6244444;23;20012;-80
2021/07/19 10:42:09;;;;;;;1.48;0.93;;;;;;;26.60;35.57;92510.56;6218311;23;20012;-81
2021/07/19 10:44:43;;;;;;;0.55;0.50;;;;;;;26.71;36.21;92508.59;6244606;23;20015;-81
2021/07/19 10:47:20;;;;;;;0.30;0.30;;;;;;;27.17;35.31;92507.69;6218858;23;20024;-82
2021/07/19 10:49:54;;;;;;;0.95;0.85;;;;;;;27.35;33.22;92506.91;6245769;23;20023;-81
2021/07/19 10:52:37;;;;;;;0.82;0.63;;;;;;;27.45;32.54;92500.72;6218560;23;20020;-80
2021/07/19 10:55:05;;;;;;;0.70;0.50;;;;;;;27.56;33.21;92495.25;6218699;23;20008;-80
2021/07/19 10:57:37;;;;;;;1.02;0.90;;;;;;;27.62;34.04;92499.06;6245257;23;20087;-78
2021/07/19 11:00:08;;;;;;;0.93;0.60;;;;;;;27.15;33.91;92496.56;6243433;23;20016;-80
2021/07/19 11:02:34;;;;;;;0.60;0.60;;;;;;;27.28;35.26;92486.19;6244340;23;20329;-78
2021/07/19 11:05:00;;;;;;;0.68;0.55;;;;;;;27.60;32.99;92488.72;6194110;23;20065;-79
2021/07/19 11:07:26;;;;;;;0.98;0.73;;;;;;;27.17;34.32;92490.81;6246562;23;20456;-81
2021/07/19 11:09:53;;;;;;;0.45;0.45;;;;;;;26.74;33.89;92494.41;6247032;23;20008;-82
2021/07/19 11:12:20;;;;;;;1.27;0.85;;;;;;;26.99;34.82;92488.19;6238342;23;20020;-81
2021/07/19 11:14:55;;;;;;;0.60;0.60;;;;;;;26.68;34.99;92487.13;6215695;23;20012;-81
2021/07/19 11:17:26;;;;;;;0.45;0.45;;;;;;;26.89;33.90;92486.31;6245492;23;20011;-81
2021/07/19 11:19:56;;;;;;;0.50;0.50;;;;;;;26.85;34.05;92480.19;6243865;23;20012;-81
2021/07/19 11:22:27;;;;;;;1.95;1.42;;;;;;;27.04;33.05;92482.41;6244245;23;20020;-78
2021/07/19 11:25:06;;;;;;;0.50;0.45;;;;;;;27.14;32.63;92484.31;6244802;23;20015;-79
2021/07/19 11:27:35;;;;;;;0.70;0.60;;;;;;;27.44;32.83;92483.03;6244558;23;20020;-80
2021/07/19 11:30:12;;;;;;;1.48;1.02;;;;;;;27.50;32.36;92478.03;6228280;23;20001;-80
2021/07/19 11:32:39;;;;;;;1.75;0.52;;;;;;;27.24;32.21;92480.06;6240063;22;20024;-81
2021/07/19 11:35:06;;;;;;;1.00;0.75;;;;;;;27.20;32.83;92480.09;6245687;23;20016;-80
2021/07/19 11:37:33;;;;;;;1.00;0.65;;;;;;;27.43;32.41;92478.84;6246318;23;20012;-81
2021/07/19 11:40:00;;;;;;;0.82;0.82;;;;;;;27.08;31.86;92477.03;6247131;23;20016;-81
2021/07/19 11:42:31;;;;;;;3.22;0.68;;;;;;;27.55;31.85;92474.94;6246513;22;20012;-81
2021/07/19 11:45:10;;;;;;;0.80;0.80;;;;;;;27.70;33.29;92472.94;6245417;23;20093;-80
2021/07/19 11:47:50;;;;;;;0.40;0.38;;;;;;;27.29;33.06;92465.44;6219809;23;20031;-80
2021/07/19 11:50:19;;;;;;;1.15;0.88;;;;;;;27.51;33.02;92474.19;6246142;22;20012;-81
2021/07/19 11:52:46;;;;;;;0.70;0.50;;;;;;;27.35;32.38;92471.97;6245263;23;20000;-80
2021/07/19 11:55:15;;;;;;;0.82;0.77;;;;;;;27.99;32.34;92468.16;6244082;23;20339;-81
2021/07/19 11:57:47;;;;;;;1.15;0.80;;;;;;;27.73;32.22;92464.81;6245618;23;20320;-81
2021/07/19 12:00:25;;;;;;;0.35;0.30;;;;;;;27.68;34.02;92456.41;6246237;22;20075;-82
2021/07/19 12:03:02;;;;;;;0.73;0.73;;;;;;;27.37;32.53;92456.22;6244583;23;20529;-80
2021/07/19 12:05:28;;;;;;;0.68;0.60;;;;;;;27.77;33.46;92467.50;6246274;23;20039;-79
2021/07/19 12:08:12;;;;;;;1.08;0.93;;;;;;;28.09;33.58;92463.84;6243936;23;20025;-80
2021/07/19 12:10:39;;;;;;;0.85;0.55;;;;;;;28.14;33.45;92456.09;6246120;22;20044;-80
2021/07/19 12:13:14;;;;;;;0.73;0.55;;;;;;;28.35;31.64;92455.16;6245141;23;20027;-79
2021/07/19 12:15:50;;;;;;;1.80;0.95;;;;;;;28.04;32.79;92459.66;6245685;23;20008;-78
2021/07/19 12:18:30;;;;;;;1.02;0.80;;;;;;;28.06;32.57;92451.19;6244574;23;20019;-79
2021/07/19 12:21:01;;;;;;;0.43;0.43;;;;;;;28.13;33.21;92453.81;6243962;22;20023;-79
2021/07/19 12:23:57;;;;;;;0.88;0.73;;;;;;;28.21;32.88;92457.97;6244212;23;20015;-80
2021/07/19 12:26:37;;;;;;;0.63;0.47;;;;;;;28.15;33.90;92451.50;6201168;23;20027;-79
2021/07/19 12:29:14;;;;;;;1.40;0.63;;;;;;;27.95;33.62;92441.25;6245370;23;20452;-79
2021/07/19 12:31:49;;;;;;;0.70;0.70;;;;;;;27.86;34.56;92438.25;6243121;22;20019;-79
2021/07/19 12:34:17;;;;;;;0.68;0.57;;;;;;;27.77;33.67;92451.38;6245055;23;20008;-79
2021/07/19 12:36:52;;;;;;;1.10;0.88;;;;;;;28.16;32.88;92453.00;6245547;23;20007;-79
2021/07/19 12:39:21;;;;;;;0.63;0.60;;;;;;;28.26;33.89;92451.38;6245613;23;20055;-79
2021/07/19 12:41:48;;;;;;;1.80;0.70;;;;;;;28.45;33.39;92448.13;6245336;22;20367;-79
2021/07/19 12:44:14;;;;;;;1.90;0.70;;;;;;;28.32;33.28;92447.09;6244283;23;20011;-78
2021/07/19 12:46:43;;;;;;;2.90;0.73;;;;;;;27.94;33.46;92439.72;6244579;23;20012;-78
2021/07/19 12:49:09;;;;;;;0.50;0.50;;;;;;;28.00;33.77;92443.53;6245789;23;20455;-79
2021/07/19 12:51:35;;;;;;;0.98;0.82;;;;;;;27.88;34.38;92435.19;6245191;22;20012;-78
2021/07/19 12:54:04;;;;;;;0.77;0.60;;;;;;;27.37;32.03;92445.47;6245181;23;20016;-80
2021/07/19 12:56:31;;;;;;;0.90;0.85;;;;;;;27.80;34.98;92442.50;6247274;23;20024;-80
2021/07/19 12:59:03;;;;;;;2.28;1.10;;;;;;;28.03;33.47;92437.38;6245862;23;20012;-78
2021/07/19 13:01:39;;;;;;;0.60;0.60;;;;;;;28.25;33.18;92434.47;6246563;22;20020;-78
2021/07/19 13:04:10;;;;;;;0.60;0.60;;;;;;;27.77;34.95;92445.97;6245896;23;20004;-80
2021/07/19 13:06:37;;;;;;;2.40;1.33;;;;;;;27.95;35.76;92425.13;6247120;23;20379;-79
2021/07/19 13:09:25;;;;;;;1.10;0.60;;;;;;;28.13;33.95;92438.44;6219136;23;20023;-80
2021/07/19 13:12:02;;;;;;;1.83;1.08;;;;;;;27.92;34.40;92435.91;6245849;22;20452;-80
2021/07/19 13:14:41;;;;;;;1.27;0.80;;;;;;;27.90;36.00;92436.31;6245564;23;20012;-79
2021/07/19 13:17:09;;;;;;;1.20;1.00;;;;;;;28.07;35.18;92431.94;6244266;23;20035;-80
2021/07/19 13:19:37;;;;;;;0.43;0.40;;;;;;;27.47;36.25;92438.47;6247663;23;20000;-79
2021/07/19 13:22:09;;;;;;;0.88;0.70;;;;;;;28.42;36.23;92436.25;6247556;22;20012;-79
2021/07/19 13:24:45;;;;;;;0.52;0.40;;;;;;;27.78;34.10;92434.81;6247631;23;20473;-78
2021/07/19 13:27:13;;;;;;;1.10;0.75;;;;;;;28.06;33.98;92435.81;6248382;23;20139;-80
2021/07/19 13:29:54;;;;;;;1.02;0.80;;;;;;;28.08;34.40;92432.69;6247286;23;20078;-79
2021/07/19 13:32:22;;;;;;;3.30;0.55;;;;;;;27.84;35.04;92432.50;6245272;22;20487;-79
2021/07/19 13:35:00;;;;;;;1.48;1.00;;;;;;;28.24;35.38;92430.28;6247190;23;20140;-79
2021/07/19 13:37:27;;;;;;;0.65;0.60;;;;;;;28.00;36.52;92435.44;6220311;23;20064;-79
2021/07/19 13:39:58;;;;;;;0.73;0.73;;;;;;;27.59;36.56;92430.72;6247921;23;20025;-78
2021/07/19 13:42:34;;;;;;;0.50;0.50;;;;;;;28.09;35.59;92431.56;6246383;22;20359;-79
2021/07/19 13:45:00;;;;;;;1.23;0.90;;;;;;;28.52;35.80;92436.56;6246237;23;20138;-78
2021/07/19 13:47:26;;;;;;;0.40;0.40;;;;;;;27.94;35.44;92434.34;6247176;23;20018;-78
2021/07/19 13:49:53;;;;;;;0.80;0.80;;;;;;;27.86;36.63;92430.19;6247789;23;20083;-79
2021/07/19 13:52:18;;;;;;;1.13;0.98;;;;;;;28.52;35.47;92431.94;6246063;22;20154;-79
2021/07/19 13:54:44;;;;;;;1.23;0.95;;;;;;;28.14;35.21;92431.13;6246416;23;20321;-79
2021/07/19 13:57:10;;;;;;;0.45;0.40;;;;;;;28.29;33.76;92424.44;6247069;23;20012;-77
2021/07/19 13:59:36;;;;;;;2.30;1.13;;;;;;;28.77;34.81;92422.81;6247492;23;20016;-79
2021/07/19 14:02:02;;;;;;;0.32;0.32;;;;;;;28.75;33.75;92419.78;6221240;23;20023;-79
2021/07/19 14:04:28;;;;;;;1.52;0.65;;;;;;;27.98;35.45;92420.88;6246853;23;20012;-79
2021/07/19 14:06:55;;;;;;;1.10;0.77;;;;;;;28.59;34.19;92413.00;6245882;23;20090;-77
2021/07/19 14:09:22;;;;;;;1.15;0.85;;;;;;;28.67;35.85;92421.78;6245205;23;20023;-77
2021/07/19 14:11:47;;;;;;;1.08;0.93;;;;;;;28.39;34.88;92415.50;6215449;23;20019;-77
2021/07/19 14:14:13;;;;;;;0.93;0.70;;;;;;;28.27;34.37;92423.31;6244068;23;20008;-77
2021/07/19 14:16:39;;;;;;;1.33;0.88;;;;;;;28.55;34.05;92422.28;6218465;23;20042;-77
2021/07/19 14:19:05;;;;;;;0.98;0.68;;;;;;;28.09;35.17;92415.41;6215927;23;20479;-78
2021/07/19 14:21:34;;;;;;;0.70;0.70;;;;;;;28.48;33.91;92422.38;6219745;23;20016;-78
2021/07/19 14:24:02;;;;;;;1.90;1.17;;;;;;;28.04;34.56;92408.53;6247535;22;20121;-77
2021/07/19 14:26:29;;;;;;;2.58;1.40;;;;;;;28.23;34.71;92413.34;6242706;23;20004;-77
2021/07/19 14:28:56;;;;;;;2.08;1.02;;;;;;;28.30;35.17;92417.88;6215337;23;20456;-75
2021/07/19 14:31:24;;;;;;;0.55;0.55;;;;;;;28.30;34.77;92411.75;6239993;22;20477;-76
2021/07/19 14:33:49;;;;;;;1.58;1.27;;;;;;;28.74;35.42;92418.25;6240907;23;20012;-77
2021/07/19 14:36:15;;;;;;;1.05;0.77;;;;;;;28.90;36.04;92415.75;6215890;23;20074;-77
2021/07/19 14:38:41;;;;;;;1.35;0.90;;;;;;;29.06;34.85;92417.88;6243596;23;20422;-77
2021/07/19 14:41:07;;;;;;;1.02;0.82;;;;;;;28.69;34.51;92408.69;6241544;22;20019;-76
2021/07/19 14:43:33;;;;;;;1.60;1.05;;;;;;;28.62;35.06;92412.22;6244202;23;20046;-76
2021/07/19 14:45:59;;;;;;;0.90;0.80;;;;;;;28.53;34.53;92408.47;6243661;23;20336;-77
2021/07/19 14:48:24;;;;;;;0.47;0.47;;;;;;;27.95;36.56;92408.22;6217092;23;20024;-76
2021/07/19 14:50:50;;;;;;;0.73;0.68;;;;;;;27.89;35.99;92407.88;6243873;22;20513;-77
2021/07/19 14:53:15;;;;;;;1.67;1.17;;;;;;;28.03;36.20;92401.59;6243318;23;20000;-76
2021/07/19 14:55:43;;;;;;;0.43;0.43;;;;;;;28.12;35.61;92412.66;6216959;23;20011;-79
2021/07/19 14:58:10;;;;;;;0.73;0.47;;;;;;;28.06;36.00;92416.22;6216517;23;20016;-76
2021/07/19 15:00:35;;;;;;;1.15;1.05;;;;;;;28.58;35.03;92416.13;6216685;22;20321;-80
2021/07/19 15:03:01;;;;;;;1.77;0.93;;;;;;;28.62;35.22;92411.47;6192535;23;20027;-76
2021/07/19 15:05:27;;;;;;;3.85;1.48;;;;;;;28.30;34.14;92414.44;6243319;23;20016;-76
2021/07/19 15:07:52;;;;;;;1.27;1.17;;;;;;;28.49;35.66;92407.75;6215594;23;20027;-76
2021/07/19 15:10:20;;;;;;;3.15;0.95;;;;;;;28.96;35.99;92418.78;6242204;22;20074;-75
2021/07/19 15:12:46;;;;;;;4.25;0.98;;;;;;;29.44;33.77;92405.06;6243728;23;20023;-77
2021/07/19 15:15:12;;;;;;;1.33;0.90;;;;;;;29.27;34.35;92412.25;6191175;23;20013;-77
2021/07/19 15:17:38;;;;;;;1.55;1.27;;;;;;;29.12;33.73;92416.28;6243988;23;20020;-77
2021/07/19 15:20:05;;;;;;;0.85;0.70;;;;;;;28.97;34.52;92410.28;6243455;23;20000;-77
2021/07/19 15:22:30;;;;;;;1.00;0.77;;;;;;;28.97;34.52;92407.56;6243312;22;20090;-77
2021/07/19 15:24:56;;;;;;;0.60;0.60;;;;;;;28.55;34.13;92415.00;6243544;23;20087;-77
2021/07/19 15:27:22;;;;;;;2.08;1.35;;;;;;;29.00;35.85;92411.38;6216463;23;20016;-77
2021/07/19 15:29:47;;;;;;;8.68;1.10;;;;;;;29.25;35.41;92411.88;6243758;23;20447;-77
2021/07/19 15:32:15;;;;;;;0.63;0.63;;;;;;;28.87;34.92;92413.88;6242334;22;20034;-78
2021/07/19 15:34:42;;;;;;;1.08;0.98;;;;;;;29.03;35.30;92413.28;6243358;23;20012;-77
2021/07/19 15:37:08;;;;;;;1.77;1.00;;;;;;;29.37;34.95;92405.16;6217260;23;20035;-77
2021/07/19 15:39:33;;;;;;;0.57;0.57;;;;;;;29.71;34.84;92415.13;6243166;23;20262;-77
2021/07/19 15:42:00;;;;;;;1.90;1.23;;;;;;;30.04;33.85;92413.44;6215910;23;20352;-77
2021/07/19 15:44:26;;;;;;;1.25;0.75;;;;;;;30.19;33.34;92411.25;6244342;23;20000;-77
2021/07/19 15:46:53;;;;;;;1.50;1.10;;;;;;;30.39;32.84;92410.56;6216175;23;20019;-75